createdAt,value
2018-09-27T00:01:00.273Z,42.10
2018-09-27T00:03:29.414Z,43.16
2018-09-27T00:05:58.406Z,43.22
2018-09-27T00:08:27.421Z,43.05
2018-09-27T00:10:56.404Z,43.42
2018-09-27T00:13:25.390Z,44.05
2018-09-27T00:15:54.387Z,43.22
2018-09-27T00:18:24.132Z,42.89
2018-09-27T00:20:53.317Z,45.04
2018-09-27T00:23:22.467Z,44.12
2018-09-27T00:25:51.645Z,42.66
2018-09-27T00:28:20.601Z,43.04
2018-09-27T00:30:49.697Z,43.06
2018-09-27T00:33:18.696Z,43.65
2018-09-27T00:35:47.685Z,43.97
2018-09-27T00:38:16.934Z,43.32
2018-09-27T00:40:46.086Z,44.17
2018-09-27T00:43:15.085Z,44.19
2018-09-27T00:45:44.701Z,45.54
2018-09-27T00:48:15.645Z,45.89
2018-09-27T00:50:45.038Z,46.74
2018-09-27T00:53:14.050Z,46.81
2018-09-27T00:55:43.078Z,46.65
2018-09-27T00:58:12.082Z,45.65
2018-09-27T01:00:41.037Z,47.52
2018-09-27T01:03:10.021Z,46.77
2018-09-27T01:05:39.183Z,47.44
2018-09-27T01:08:08.394Z,46.77
2018-09-27T01:10:37.442Z,47.17
2018-09-27T01:13:06.446Z,46.91
2018-09-27T01:15:35.526Z,46.92
2018-09-27T01:18:04.484Z,48.57
2018-09-27T01:20:33.430Z,49.36
2018-09-27T01:23:02.395Z,49.57
2018-09-27T01:25:31.375Z,48.07
2018-09-27T01:28:00.357Z,48.59
2018-09-27T01:30:29.302Z,47.34
2018-09-27T01:32:58.287Z,46.88
2018-09-27T01:35:27.262Z,47.48
2018-09-27T01:37:56.232Z,47.72
2018-09-27T01:40:25.231Z,47.36
2018-09-27T01:42:54.388Z,47.28
2018-09-27T01:45:23.342Z,47.46
2018-09-27T01:47:52.308Z,48.13
2018-09-27T01:50:21.255Z,47.90
2018-09-27T01:52:50.216Z,48.08
2018-09-27T01:55:19.145Z,49.21
2018-09-27T01:57:48.122Z,49.90
2018-09-27T02:00:17.282Z,49.84
2018-09-27T02:02:46.255Z,49.44
2018-09-27T02:05:15.224Z,50.96
2018-09-27T02:07:44.178Z,48.17
2018-09-27T02:10:13.191Z,48.56
2018-09-27T02:12:42.200Z,48.68
2018-09-27T02:15:11.385Z,48.12
2018-09-27T02:17:40.344Z,47.77
2018-09-27T02:20:09.285Z,48.00
2018-09-27T02:22:38.398Z,49.45
2018-09-27T02:25:07.917Z,49.32
2018-09-27T02:27:36.856Z,50.17
2018-09-27T02:30:05.846Z,50.32
2018-09-27T02:32:35.055Z,48.96
2018-09-27T02:35:04.155Z,49.80
2018-09-27T02:37:33.137Z,49.75
2018-09-27T02:40:02.105Z,49.93
2018-09-27T02:42:31.037Z,51.82
2018-09-27T02:45:00.054Z,51.85
2018-09-27T02:47:28.970Z,49.59
2018-09-27T02:49:57.935Z,50.17
2018-09-27T02:52:26.873Z,50.30
2018-09-27T02:54:55.881Z,49.37
2018-09-27T02:57:24.834Z,49.71
2018-09-27T02:59:53.825Z,50.24
2018-09-27T03:02:23.013Z,50.51
2018-09-27T03:04:52.121Z,50.79
2018-09-27T03:07:21.209Z,50.24
2018-09-27T03:09:50.470Z,50.46
2018-09-27T03:12:19.422Z,50.92
2018-09-27T03:14:48.369Z,51.29
2018-09-27T03:17:17.329Z,51.18
2018-09-27T03:19:46.292Z,50.06
2018-09-27T03:22:15.270Z,50.20
2018-09-27T03:24:44.289Z,50.52
2018-09-27T03:27:13.530Z,50.58
2018-09-27T03:29:42.699Z,50.65
2018-09-27T03:32:12.430Z,50.98
2018-09-27T03:34:41.703Z,52.51
2018-09-27T03:37:10.743Z,51.78
2018-09-27T03:39:39.731Z,51.25
2018-09-27T03:42:09.434Z,51.98
2018-09-27T03:44:38.393Z,50.91
2018-09-27T03:47:07.483Z,51.44
2018-09-27T03:49:36.437Z,52.96
2018-09-27T03:52:05.441Z,51.52
2018-09-27T03:54:34.439Z,51.43
2018-09-27T03:57:03.409Z,51.52
2018-09-27T03:59:32.653Z,51.74
2018-09-27T04:02:01.889Z,51.96
2018-09-27T04:04:30.865Z,52.59
2018-09-27T04:06:59.854Z,53.22
2018-09-27T04:09:29.244Z,52.67
2018-09-27T04:11:58.210Z,52.82
2018-09-27T04:14:27.186Z,53.45
2018-09-27T04:16:56.268Z,52.26
2018-09-27T04:19:25.209Z,52.34
2018-09-27T04:21:54.521Z,54.96
2018-09-27T04:24:23.443Z,54.08
2018-09-27T04:26:52.709Z,56.85
2018-09-27T04:29:21.899Z,54.23
2018-09-27T04:31:50.872Z,54.35
2018-09-27T04:34:20.057Z,53.20
2018-09-27T04:36:49.000Z,52.29
2018-09-27T04:39:18.166Z,53.00
2018-09-27T04:41:47.142Z,53.64
2018-09-27T04:44:16.306Z,53.01
2018-09-27T04:46:45.519Z,53.30
2018-09-27T04:49:14.454Z,53.19
2018-09-27T04:51:43.413Z,52.95
2018-09-27T04:54:12.457Z,54.34
2018-09-27T04:56:41.427Z,56.42
2018-09-27T04:59:10.432Z,54.99
2018-09-27T05:01:39.395Z,53.42
2018-09-27T05:04:08.665Z,54.04
2018-09-27T05:06:37.679Z,52.55
2018-09-27T05:09:07.942Z,54.53
2018-09-27T05:11:37.223Z,53.54
2018-09-27T05:14:06.326Z,53.43
2018-09-27T05:16:35.298Z,54.37
2018-09-27T05:19:08.441Z,53.50
2018-09-27T05:21:37.447Z,54.43
2018-09-27T05:24:06.493Z,53.14
2018-09-27T05:26:35.905Z,53.85
2018-09-27T05:29:05.290Z,53.39
2018-09-27T05:31:34.662Z,54.99
2018-09-27T05:34:03.605Z,53.50
2018-09-27T05:36:32.789Z,54.36
2018-09-27T05:39:01.834Z,54.23
2018-09-27T05:41:30.937Z,54.28
2018-09-27T05:43:59.896Z,54.09
2018-09-27T05:46:28.845Z,54.30
2018-09-27T05:48:57.785Z,54.51
2018-09-27T05:51:26.761Z,54.29
2018-09-27T05:53:55.728Z,53.76
2018-09-27T05:56:24.740Z,53.87
2018-09-27T05:58:53.740Z,53.60
2018-09-27T06:01:22.721Z,54.42
2018-09-27T06:03:51.755Z,54.02
2018-09-27T06:06:20.713Z,53.03
2018-09-27T06:08:49.719Z,53.08
2018-09-27T06:11:18.817Z,52.90
2018-09-27T06:13:47.769Z,54.12
2018-09-27T06:16:17.112Z,55.02
2018-09-27T06:18:46.167Z,54.42
2018-09-27T06:21:15.172Z,54.33
2018-09-27T06:23:44.572Z,54.18
2018-09-27T06:26:13.807Z,53.60
2018-09-27T06:28:42.797Z,53.11
2018-09-27T06:31:12.288Z,56.35
2018-09-27T06:33:41.271Z,54.09
2018-09-27T06:36:10.567Z,57.52
2018-09-27T06:38:39.671Z,57.50
2018-09-27T06:41:08.591Z,55.69
2018-09-27T06:43:38.022Z,53.84
2018-09-27T06:46:07.286Z,53.27
2018-09-27T06:48:36.554Z,56.13
2018-09-27T06:51:05.522Z,54.63
2018-09-27T06:53:34.525Z,56.10
2018-09-27T06:56:03.722Z,54.87
2018-09-27T06:58:32.669Z,53.37
2018-09-27T07:01:01.901Z,52.64
2018-09-27T07:03:31.247Z,54.69
2018-09-27T07:06:00.741Z,55.01
2018-09-27T07:08:29.864Z,55.66
2018-09-27T07:10:59.047Z,55.96
2018-09-27T07:13:28.021Z,56.56
2018-09-27T07:15:57.009Z,55.34
2018-09-27T07:18:26.026Z,57.13
2018-09-27T07:20:55.034Z,57.18
2018-09-27T07:23:23.999Z,54.16
2018-09-27T07:25:53.197Z,54.28
2018-09-27T07:28:22.394Z,53.90
2018-09-27T07:30:51.382Z,54.80
2018-09-27T07:33:20.756Z,54.62
2018-09-27T07:35:49.713Z,54.69
2018-09-27T07:38:18.710Z,57.09
2018-09-27T07:40:47.689Z,56.71
2018-09-27T07:43:16.686Z,56.48
2018-09-27T07:45:45.827Z,55.03
2018-09-27T07:48:15.119Z,56.06
2018-09-27T07:50:44.171Z,55.57
2018-09-27T07:53:13.162Z,57.65
2018-09-27T07:55:42.126Z,56.05
2018-09-27T07:58:11.106Z,53.42
2018-09-27T08:00:40.076Z,54.52
2018-09-27T08:03:09.467Z,56.52
2018-09-27T08:05:38.801Z,54.13
2018-09-27T08:08:08.279Z,56.55
2018-09-27T08:10:37.318Z,57.03
2018-09-27T08:13:06.306Z,58.44
2018-09-27T08:15:35.722Z,58.01
2018-09-27T08:18:04.966Z,57.99
2018-09-27T08:20:34.001Z,60.18
2018-09-27T08:23:02.966Z,60.02
2018-09-27T08:25:32.039Z,58.24
2018-09-27T08:28:01.245Z,57.12
2018-09-27T08:30:30.238Z,55.87
2018-09-27T08:32:59.428Z,56.97
2018-09-27T08:35:28.737Z,59.94
2018-09-27T08:37:58.027Z,60.28
2018-09-27T08:40:27.258Z,61.56
2018-09-27T08:42:56.770Z,60.92
2018-09-27T08:45:25.949Z,60.74
2018-09-27T08:47:54.819Z,60.97
2018-09-27T08:50:23.955Z,60.34
2018-09-27T08:52:53.126Z,58.24
2018-09-27T08:55:22.199Z,59.72
2018-09-27T08:57:51.153Z,57.16
2018-09-27T09:00:20.304Z,55.37
2018-09-27T09:02:49.421Z,58.80
2018-09-27T09:05:18.446Z,56.37
2018-09-27T09:07:47.797Z,55.90
2018-09-27T09:10:16.820Z,57.64
2018-09-27T09:12:46.038Z,57.67
2018-09-27T09:15:15.033Z,56.82
2018-09-27T09:17:44.242Z,55.68
2018-09-27T09:20:13.369Z,57.21
2018-09-27T09:22:42.347Z,55.75
2018-09-27T09:25:11.344Z,58.75
2018-09-27T09:27:40.419Z,58.56
2018-09-27T09:30:10.481Z,59.12
2018-09-27T09:32:39.603Z,57.97
2018-09-27T09:35:08.582Z,58.21
2018-09-27T09:37:37.704Z,55.13
2018-09-27T09:40:06.920Z,56.21
2018-09-27T09:42:36.453Z,56.35
2018-09-27T09:45:05.709Z,59.82
2018-09-27T09:47:34.689Z,59.78
2018-09-27T09:50:03.777Z,59.54
2018-09-27T09:52:32.708Z,58.25
2018-09-27T09:55:01.769Z,58.91
2018-09-27T09:57:31.022Z,57.73
2018-09-27T10:00:00.123Z,57.79
2018-09-27T10:02:29.238Z,56.63
2018-09-27T10:04:58.778Z,57.29
2018-09-27T10:07:27.768Z,56.04
2018-09-27T10:09:56.747Z,57.00
2018-09-27T10:12:25.959Z,56.40
2018-09-27T10:14:54.955Z,56.73
2018-09-27T10:17:24.282Z,58.28
2018-09-27T10:19:53.282Z,59.70
2018-09-27T10:22:22.273Z,59.42
2018-09-27T10:24:51.901Z,60.67
2018-09-27T10:27:20.907Z,60.60
2018-09-27T10:29:49.871Z,60.89
2018-09-27T10:32:18.817Z,60.52
2018-09-27T10:34:47.852Z,59.83
2018-09-27T10:37:16.839Z,60.56
2018-09-27T10:39:45.907Z,60.80
2018-09-27T10:42:14.849Z,60.95
2018-09-27T10:44:43.847Z,60.10
2018-09-27T10:47:16.205Z,59.90
2018-09-27T10:49:46.279Z,59.44
2018-09-27T10:52:18.346Z,59.33
2018-09-27T10:54:48.128Z,59.36
2018-09-27T10:57:17.659Z,58.90
2018-09-27T10:59:47.490Z,59.10
2018-09-27T11:02:17.030Z,59.02
2018-09-27T11:04:47.024Z,58.92
2018-09-27T11:07:16.250Z,58.93
2018-09-27T11:09:45.331Z,59.13
2018-09-27T11:12:14.330Z,58.87
2018-09-27T11:14:43.569Z,59.52
2018-09-27T11:17:12.527Z,59.06
2018-09-27T11:19:41.498Z,59.10
2018-09-27T11:22:10.482Z,57.67
2018-09-27T11:24:39.442Z,59.25
2018-09-27T11:27:08.681Z,59.02
2018-09-27T11:29:43.037Z,60.13
2018-09-27T11:32:17.371Z,59.71
2018-09-27T11:34:46.538Z,59.81
2018-09-27T11:37:15.936Z,59.52
2018-09-27T11:39:45.198Z,59.43
2018-09-27T11:42:14.196Z,59.08
2018-09-27T11:44:43.191Z,58.84
2018-09-27T11:47:12.177Z,59.30
2018-09-27T11:49:41.628Z,58.34
2018-09-27T11:52:10.619Z,59.09
2018-09-27T11:54:39.960Z,58.69
2018-09-27T11:57:09.106Z,59.23
2018-09-27T11:59:38.079Z,58.03
2018-09-27T12:02:07.465Z,58.31
2018-09-27T12:04:36.456Z,57.23
2018-09-27T12:07:05.456Z,57.18
2018-09-27T12:09:34.727Z,57.84
2018-09-27T12:12:03.766Z,57.36
2018-09-27T12:14:32.735Z,57.03
2018-09-27T12:17:02.025Z,56.16
2018-09-27T12:19:31.258Z,56.75
2018-09-27T12:22:00.217Z,58.20
2018-09-27T12:24:29.531Z,57.28
2018-09-27T12:26:58.538Z,56.32
2018-09-27T12:29:27.902Z,56.48
2018-09-27T12:31:56.924Z,54.99
2018-09-27T12:34:26.335Z,56.29
2018-09-27T12:36:55.373Z,58.22
2018-09-27T12:39:24.328Z,57.04
2018-09-27T12:41:53.677Z,55.56
2018-09-27T12:44:22.543Z,56.00
2018-09-27T12:46:51.802Z,54.98
2018-09-27T12:49:20.981Z,54.75
2018-09-27T12:51:50.771Z,55.41
2018-09-27T12:54:19.677Z,54.11
2018-09-27T12:56:48.872Z,54.47
2018-09-27T12:59:18.102Z,53.34
2018-09-27T13:01:47.376Z,53.54
2018-09-27T13:04:16.266Z,53.50
2018-09-27T13:06:45.649Z,54.58
2018-09-27T13:09:15.069Z,55.09
2018-09-27T13:11:43.921Z,55.79
2018-09-27T13:14:13.170Z,54.41
2018-09-27T13:16:42.178Z,55.82
2018-09-27T13:19:11.407Z,54.67
2018-09-27T13:21:40.370Z,56.16
2018-09-27T13:24:09.362Z,55.80
2018-09-27T13:26:38.375Z,55.39
2018-09-27T13:29:07.329Z,56.31
2018-09-27T13:31:36.333Z,54.84
2018-09-27T13:34:05.377Z,55.72
2018-09-27T13:36:34.356Z,54.44
2018-09-27T13:39:03.382Z,54.24
2018-09-27T13:41:32.375Z,55.30
2018-09-27T13:44:08.133Z,53.90
2018-09-27T13:46:37.523Z,54.00
2018-09-27T13:49:06.551Z,54.05
2018-09-27T13:51:35.499Z,53.67
2018-09-27T13:54:04.692Z,53.50
2018-09-27T13:56:33.859Z,54.33
2018-09-27T13:59:02.853Z,53.01
2018-09-27T14:01:31.824Z,52.67
2018-09-27T14:04:00.797Z,54.43
2018-09-27T14:06:30.002Z,54.05
2018-09-27T14:08:58.969Z,54.57
2018-09-27T14:11:27.925Z,54.33
2018-09-27T14:13:56.887Z,55.77
2018-09-27T14:16:25.851Z,54.05
2018-09-27T14:18:54.922Z,53.37
2018-09-27T14:21:23.880Z,54.64
2018-09-27T14:23:52.856Z,53.53
2018-09-27T14:26:21.882Z,53.87
2018-09-27T14:28:51.107Z,54.31
2018-09-27T14:31:20.289Z,54.79
2018-09-27T14:33:49.286Z,53.91
2018-09-27T14:36:18.400Z,52.92
2018-09-27T14:38:47.527Z,54.22
2018-09-27T14:41:16.549Z,52.78
2018-09-27T14:43:45.551Z,52.95
2018-09-27T14:46:14.570Z,53.96
2018-09-27T14:48:43.563Z,53.58
2018-09-27T14:51:12.551Z,53.62
2018-09-27T14:53:42.157Z,52.84
2018-09-27T14:56:11.244Z,52.43
2018-09-27T14:58:40.260Z,53.71
2018-09-27T15:01:09.719Z,54.61
2018-09-27T15:03:38.733Z,52.73
2018-09-27T15:06:07.760Z,52.03
2018-09-27T15:08:37.070Z,54.36
2018-09-27T15:11:06.246Z,53.31
2018-09-27T15:13:35.293Z,51.93
2018-09-27T15:16:04.451Z,53.66
2018-09-27T15:18:33.524Z,52.69
2018-09-27T15:21:02.742Z,53.47
2018-09-27T15:23:31.792Z,53.83
2018-09-27T15:26:00.713Z,53.04
2018-09-27T15:28:29.698Z,52.92
2018-09-27T15:30:59.513Z,52.10
2018-09-27T15:33:28.725Z,52.33
2018-09-27T15:35:57.689Z,51.83
2018-09-27T15:38:26.643Z,52.36
2018-09-27T15:40:55.822Z,52.72
2018-09-27T15:43:25.245Z,53.92
2018-09-27T15:45:54.325Z,53.41
2018-09-27T15:48:23.302Z,52.42
2018-09-27T15:50:52.298Z,52.28
2018-09-27T15:53:21.431Z,53.99
2018-09-27T15:55:50.398Z,53.56
2018-09-27T15:58:19.750Z,52.77
2018-09-27T16:00:48.739Z,51.79
2018-09-27T16:03:17.998Z,51.46
2018-09-27T16:05:47.266Z,51.74
2018-09-27T16:08:16.237Z,52.01
2018-09-27T16:10:45.359Z,52.65
2018-09-27T16:13:14.410Z,53.16
2018-09-27T16:15:43.600Z,53.69
2018-09-27T16:18:12.555Z,52.93
2018-09-27T16:20:41.555Z,52.38
2018-09-27T16:23:10.578Z,52.38
2018-09-27T16:25:39.841Z,53.61
2018-09-27T16:28:08.864Z,53.40
2018-09-27T16:30:37.842Z,53.39
2018-09-27T16:33:07.122Z,52.20
2018-09-27T16:35:36.193Z,52.96
2018-09-27T16:38:05.141Z,53.12
2018-09-27T16:40:35.489Z,53.72
2018-09-27T16:43:04.500Z,54.30
2018-09-27T16:45:33.731Z,53.27
2018-09-27T16:48:02.730Z,54.73
2018-09-27T16:50:31.818Z,54.02
2018-09-27T16:53:00.807Z,54.42
2018-09-27T16:55:30.092Z,54.12
2018-09-27T16:57:59.073Z,54.39
2018-09-27T17:00:28.273Z,54.75
2018-09-27T17:02:57.274Z,54.70
2018-09-27T17:05:26.331Z,53.78
2018-09-27T17:07:56.751Z,54.51
2018-09-27T17:10:26.552Z,54.07
2018-09-27T17:12:56.220Z,55.14
2018-09-27T17:15:26.932Z,54.55
2018-09-27T17:17:57.412Z,54.35
2018-09-27T17:20:26.784Z,55.56
2018-09-27T17:22:58.453Z,55.92
2018-09-27T17:25:28.069Z,56.04
2018-09-27T17:27:58.323Z,55.61
2018-09-27T17:30:28.806Z,55.55
2018-09-27T17:32:58.554Z,55.57
2018-09-27T17:35:27.569Z,55.54
2018-09-27T17:37:56.650Z,56.01
2018-09-27T17:40:26.983Z,56.28
2018-09-27T17:42:57.507Z,56.64
2018-09-27T17:45:28.063Z,56.62
2018-09-27T17:47:58.237Z,56.73
2018-09-27T17:50:27.335Z,56.82
2018-09-27T17:52:56.714Z,56.84
2018-09-27T17:55:25.691Z,57.84
2018-09-27T17:57:55.472Z,58.43
2018-09-27T18:00:25.728Z,58.13
2018-09-27T18:02:55.332Z,57.84
2018-09-27T18:05:24.376Z,56.88
2018-09-27T18:07:54.343Z,57.81
2018-09-27T18:10:23.420Z,57.59
2018-09-27T18:12:52.458Z,57.93
2018-09-27T18:15:23.293Z,58.81
2018-09-27T18:17:53.590Z,57.96
2018-09-27T18:20:24.128Z,58.32
2018-09-27T18:22:54.177Z,59.02
2018-09-27T18:25:24.566Z,59.42
2018-09-27T18:27:54.867Z,58.67
2018-09-27T18:30:25.084Z,58.46
2018-09-27T18:32:54.625Z,58.22
2018-09-27T18:35:24.186Z,58.24
2018-09-27T18:37:54.046Z,58.33
2018-09-27T18:40:24.188Z,59.22
2018-09-27T18:42:53.849Z,57.71
2018-09-27T18:45:23.033Z,59.31
2018-09-27T18:47:53.453Z,58.74
2018-09-27T18:50:23.893Z,58.34
2018-09-27T18:52:53.594Z,59.41
2018-09-27T18:55:22.641Z,59.19
2018-09-27T18:57:52.784Z,58.48
2018-09-27T19:00:23.034Z,59.55
2018-09-27T19:02:52.081Z,59.49
2018-09-27T19:05:22.903Z,58.71
2018-09-27T19:07:52.801Z,58.59
2018-09-27T19:10:24.178Z,60.29
2018-09-27T19:12:53.662Z,58.75
2018-09-27T19:15:23.845Z,58.12
2018-09-27T19:17:54.075Z,58.80
2018-09-27T19:20:23.241Z,59.30
2018-09-27T19:22:52.776Z,58.41
2018-09-27T19:25:21.950Z,59.47
2018-09-27T19:27:50.957Z,58.72
2018-09-27T19:30:20.669Z,59.29
2018-09-27T19:32:50.871Z,59.06
2018-09-27T19:35:20.722Z,59.60
2018-09-27T19:37:50.021Z,59.54
2018-09-27T19:40:19.304Z,59.23
2018-09-27T19:42:48.936Z,58.94
2018-09-27T19:45:18.673Z,59.70
2018-09-27T19:47:48.270Z,58.84
2018-09-27T19:50:17.587Z,59.42
2018-09-27T19:52:46.641Z,59.32
2018-09-27T19:55:16.217Z,59.05
2018-09-27T19:57:45.667Z,59.82
2018-09-27T20:00:15.236Z,59.25
2018-09-27T20:02:44.390Z,59.22
2018-09-27T20:05:13.431Z,60.04
2018-09-27T20:07:42.743Z,59.70
2018-09-27T20:10:12.120Z,60.72
2018-09-27T20:12:41.420Z,60.09
2018-09-27T20:15:10.689Z,60.52
2018-09-27T20:17:40.154Z,59.88
2018-09-27T20:20:09.971Z,60.38
2018-09-27T20:22:39.940Z,60.34
2018-09-27T20:25:09.885Z,60.39
2018-09-27T20:27:39.845Z,59.92
2018-09-27T20:30:09.831Z,60.35
2018-09-27T20:32:39.840Z,60.66
2018-09-27T20:35:10.649Z,60.09
2018-09-27T20:37:40.484Z,60.02
2018-09-27T20:40:09.785Z,60.35
2018-09-27T20:42:39.275Z,61.06
2018-09-27T20:45:09.295Z,61.13
2018-09-27T20:47:38.961Z,61.14
2018-09-27T20:50:09.010Z,61.07
2018-09-27T20:52:38.270Z,61.05
2018-09-27T20:55:08.289Z,61.25
2018-09-27T20:57:38.905Z,61.31
2018-09-27T21:00:08.695Z,61.72
2018-09-27T21:02:37.886Z,61.40
2018-09-27T21:05:07.085Z,61.29
2018-09-27T21:17:06.717Z,67.94
2018-09-27T21:19:35.711Z,67.04
2018-09-27T21:22:04.697Z,64.94
2018-09-27T21:24:33.749Z,64.78
2018-09-27T21:27:02.789Z,63.57
2018-09-27T21:29:31.739Z,63.81
2018-09-27T21:32:00.730Z,63.44
2018-09-27T21:34:29.753Z,62.77
2018-09-27T21:36:58.774Z,62.99
2018-09-27T21:39:27.754Z,63.14
2018-09-27T21:41:57.180Z,65.36
2018-09-27T21:44:26.163Z,64.51
2018-09-27T21:46:55.255Z,64.21
2018-09-27T21:49:24.331Z,63.74
2018-09-27T21:51:53.324Z,63.29
2018-09-27T21:54:22.443Z,63.80
2018-09-27T21:56:51.433Z,64.37
2018-09-27T21:59:20.621Z,63.57
2018-09-27T22:01:49.723Z,64.87
2018-09-27T22:04:18.734Z,64.96
2018-09-27T22:06:49.176Z,64.72
2018-09-27T22:09:18.526Z,65.53
2018-09-27T22:11:51.175Z,65.41
2018-09-27T22:14:20.923Z,66.11
2018-09-27T22:16:49.984Z,66.07
2018-09-27T22:19:19.173Z,67.05
2018-09-27T22:21:48.247Z,66.79
2018-09-27T22:24:17.442Z,67.27
2018-09-27T22:26:46.409Z,67.10
2018-09-27T22:29:15.604Z,67.66
2018-09-27T22:31:44.852Z,66.89
2018-09-27T22:34:13.869Z,66.13
2018-09-27T22:36:43.113Z,66.85
2018-09-27T22:39:12.239Z,65.84
2018-09-27T22:41:41.412Z,66.18
2018-09-27T22:44:10.782Z,64.85
2018-09-27T22:46:40.027Z,65.04
2018-09-27T22:49:09.105Z,64.78
2018-09-27T22:51:38.137Z,66.34
2018-09-27T22:54:07.323Z,66.15
2018-09-27T22:56:36.648Z,67.17
2018-09-27T22:59:05.843Z,64.91
2018-09-27T23:01:34.867Z,65.31
2018-09-27T23:04:03.929Z,65.67
2018-09-27T23:06:32.969Z,64.96
2018-09-27T23:09:02.150Z,66.17
2018-09-27T23:11:32.736Z,64.82
2018-09-27T23:14:03.078Z,64.51
2018-09-27T23:16:32.052Z,64.73
2018-09-27T23:19:01.134Z,65.35
2018-09-27T23:21:30.159Z,64.99
2018-09-27T23:23:59.660Z,64.89
2018-09-27T23:26:29.080Z,65.25
2018-09-27T23:28:58.240Z,64.73
2018-09-27T23:31:27.813Z,66.02
2018-09-27T23:33:57.113Z,66.14
2018-09-27T23:36:26.115Z,64.84
2018-09-27T23:38:55.209Z,65.32
2018-09-27T23:41:24.653Z,64.87
2018-09-27T23:43:53.614Z,63.61
2018-09-27T23:46:22.926Z,64.11
2018-09-27T23:48:51.906Z,64.56
2018-09-27T23:51:20.878Z,64.14
2018-09-27T23:53:49.848Z,64.73
2018-09-27T23:56:18.971Z,64.38
2018-09-27T23:58:48.168Z,64.05
